Main page
METAR-TAF:

METAR-TAF

Airports :

Ämari Air Base

Ämari, Estonia

latitude: 59-15-44N, longitude: 24-13-07E, elevation: 20 m

Current weather observation

The report was made 3 hours and 53 minutes ago, at 20:11 UTC
Wind 5 kt from the East/Northeast
Temperature -5°C
Humidity 93%
Pressure 1010 hPa
Visibility 10 km or more

METAR: EEEI 042011Z AUTO 07005KT 9999 FEW011/// SCT013/// OVC022/// M05/M06 Q1010

Time: 02:04 (00:04 UTC)

Forecast

The report was made 34 minutes ago, at 23:30 UTC
Forecast valid from 05 at 00 UTC to 05 at 24 UTC
Wind 6 kt from the East
Visibility 10 km or more
Broken clouds at a height of 1500 ft
Temporary
from 05 at 00 UTC to 05 at 12 UTC
Visibility: 2000 m
Broken clouds at a height of 1000 ft
snow
Temporary
from 05 at 18 UTC to 05 at 21 UTC
Visibility: 3000 m
Broken clouds at a height of 1200 ft
snow

TAF: EEEI 042330Z 0500/0524 10006KT 9999 BKN015 TEMPO 0500/0512 2000 SN BKN010 TEMPO 0518/0521 3000 SN BKN012

Weather observations and forecasts of more than 4000 airports (METAR and TAF reports).

The available stations are represented by yellow and red dots on the map.

Hover mouse over dot to see the name of the station.

Then click to see weather observations and forecasts.

To change the map : click on the green buttons with a black cross to zoom in, on the green button with a dash to zoom out, or on the green arrows for adjacent maps.


METAR-TAF: